Bartlettsville, Indiana
Current Conditions -  °F | °C
As of 12:53 PM on Sunday 21 Dec 2014 (Local Time) from KBMG Reporting Station
Clear Clear  
Wind Chill:   Ceiling: Unl
Heat Index:   Visibility: 9mi
Dew Point: -2°   Wind: 6mph
Humidity: 76%   Direction: 100°E
Pressure: 30.2"   Gusts: NA
Location:  38.8737°N, 86.4563°W
Report Text: KBMG 211753Z 10005KT 9SM CLR 02/M02 A3020 RMK AO2 SLP236 T00221017 10022 21072 58021
Loading
Personal Weather Stations






























Interactive Weather Map New forecast layout! Learn more

10-Day Weather Forecast

Advertisements
Track Severe Weather on mobile